• Join FlightAware (Why Join?)
  • Login
  • US Flag 
05:39PM EDT


 

Airport Tracker/Info


-or-


 

Live Flight TrackerFlight Track Log ✈ KAP927 ✈ 26-Jun-2013 ✈ KOGS - KALB

Flight Track Log - Related Links

Times and Time Zones

All times are in EDT time to prevent confusion due to time zone crossing. See the KAP927 flight status page for this flight to view local times or setup timezone preferences in your user account.

Time Position Orientation Groundspeed Altitude Reporting Facility
EDT Latitude Longitude Course Direction KTS MPH feet Rate Location/Type
05:05PM 44.5650 -75.3161 149° Southeast 162 186 3,100  Level Boston Center
05:06PM 44.5322 -75.2911 151° Southeast 157 181 3,600 480 Climbing Boston Center
05:07PM 44.5019 -75.2606 144° Southeast 146 168 4,100 480 Climbing Boston Center
05:08PM 44.4692 -75.2358 152° Southeast 138 159 4,600 480 Climbing Boston Center
05:09PM 44.4364 -75.2111 152° Southeast 138 159 5,100 540 Climbing Boston Center
05:10PM 44.4902 -75.2947 149° Southeast  Level Estimated
05:10PM 44.4058 -75.1806 144° Southeast 138 159 5,700  Level Boston Center
05:11PM 44.3711 -75.1556 153° Southeast 138 159 6,200 480 Climbing Boston Center
05:12PM 44.3386 -75.1192 141° Southeast 143 165 6,700 420 Climbing Boston Center
05:13PM 44.3017 -75.0944 154° Southeast 143 165 7,100 180 Climbing Boston Center
05:14PM 44.2608 -75.0578 147° Southeast 154 177 7,100  Level Boston Center
05:15PM 44.2178 -75.0183 147° Southeast 168 193 7,100  Level Boston Center
05:16PM 44.1769 -74.9847 149° Southeast 174 200 7,100  Level Boston Center
05:17PM 44.1381 -74.9511 148° Southeast 174 200 7,100  Level Boston Center
05:18PM 44.0972 -74.9147 147° Southeast 174 200 7,100  Level Boston Center
05:19PM 44.0583 -74.8842 151° Southeast 174 200 7,100  Level Boston Center
05:20PM 44.0194 -74.8481 146° Southeast 174 200 7,100  Level Boston Center
05:21PM 43.9783 -74.8147 150° Southeast 174 200 7,100  Level Boston Center
05:22PM 43.9394 -74.7814 148° Southeast 174 200 7,100  Level Boston Center
05:23PM 43.9006 -74.7481 148° Southeast 168 193 7,100  Level Boston Center
05:24PM 43.8617 -74.7178 151° Southeast 168 193 7,100  Level Boston Center
05:25PM 43.8206 -74.6817 148° Southeast 168 193 7,100  Level Boston Center
05:26PM 43.7794 -74.6486 150° Southeast 168 193 7,100  Level Boston Center
05:27PM 43.7406 -74.6156 148° Southeast 168 193 7,100  Level Boston Center
05:28PM 43.6994 -74.5825 150° Southeast 168 193 7,100  Level Boston Center
05:29PM 43.6606 -74.5494 148° Southeast 168 193 7,100  Level Boston Center
05:30PM 43.6194 -74.5164 150° Southeast 168 193 7,100  Level Boston Center
05:31PM 43.5783 -74.4836 150° Southeast 168 193 7,100  Level Boston Center
05:32PM 43.5372 -74.4478 148° Southeast 168 193 7,100  Level Boston Center
05:33PM 43.4964 -74.4122 148° Southeast 168 193 7,100  Level Boston Center
05:34PM 43.4469 -74.3733 150° Southeast 168 193 7,100  Level Boston Center
05:35PM 43.4139 -74.3467 150° Southeast 170 196 7,100  Level Boston Center
05:36PM 43.3750 -74.3111 146° Southeast 172 198 7,100  Level Boston Center
05:37PM 43.3339 -74.2811 152° Southeast 170 196 7,100  Level Boston Center
05:38PM 43.2969 -74.2486 147° Southeast 171 197 7,100  Level Boston Center
05:39PM 43.2556 -74.2161 150° Southeast 168 193 7,100 -300 Level Boston Center
05:40PM 43.2125 -74.1836 151° Southeast 188 216 6,500 -600 Descending Boston Center
05:41PM 43.1589 -74.1392 149° Southeast 189 217 5,900 -480 Descending Boston Center
05:42PM 43.1136 -74.1067 152° Southeast 189 217 5,600 -420 Descending Boston Center
05:43PM 43.0703 -74.0686 147° Southeast 186 214 5,100 -300 Descending Boston Center
05:44PM 43.0292 -74.0306 146° Southeast 176 203 5,100  Level Boston Center
05:45PM 42.9814 -74.0125 165° South 163 188 5,100 -120 Level Boston Center
05:46PM 42.9378 -74.0000 168° South 165 190 4,900 -420 Descending Boston Center
05:47PM 42.8817 -73.9872 171° South 187 215 4,300 -600 Descending Boston Center
05:48PM 42.8319 -73.9803 174° South 184 212 3,800 -600 Descending Boston Center
05:49PM 42.7819 -73.9592 163° South 184 212 3,200 -840 Descending Boston Center
05:50PM 42.7431 -73.9131 139° Southeast 179 206 2,200 -960 Descending Boston Center
05:51PM 42.7250 -73.8617 116° Southeast 138 159 1,200 -660 Descending Boston Center
05:52PM 42.7214 -73.8164 96° East 120 138 900 -360 Descending Boston Center
05:54PM 42.7491 -73.8020 45° Northeast  Level Estimated
06:01PM 42.7491 -73.8020 160° South  Level Estimated
06:02PM 42.7491 -73.8020 160° South  Level Estimated
06:03PM 42.7491 -73.8020 160° South  Level Estimated